createdAt,value
2024-04-22T00:01:56.124Z,100.00
2024-04-22T00:04:23.319Z,100.00
2024-04-22T00:06:53.036Z,100.00
2024-04-22T00:09:20.112Z,100.00
2024-04-22T00:11:49.888Z,100.00
2024-04-22T00:14:21.572Z,100.00
2024-04-22T00:16:51.523Z,100.00
2024-04-22T00:19:18.683Z,100.00
2024-04-22T00:21:48.387Z,100.00
2024-04-22T00:24:15.540Z,100.00
2024-04-22T00:26:45.247Z,100.00
2024-04-22T00:29:12.398Z,100.00
2024-04-22T00:31:44.950Z,100.00
2024-04-22T00:34:12.198Z,100.00
2024-04-22T00:36:42.703Z,100.00
2024-04-22T00:39:10.122Z,100.00
2024-04-22T00:41:39.776Z,100.00
2024-04-22T00:44:06.862Z,100.00
2024-04-22T00:46:36.740Z,100.00
2024-04-22T00:49:06.779Z,100.00
2024-04-22T00:51:39.461Z,100.00
2024-04-22T00:54:09.014Z,100.00
2024-04-22T00:56:41.562Z,100.00
2024-04-22T00:59:08.769Z,100.00
2024-04-22T01:01:39.888Z,100.00
2024-04-22T01:04:09.915Z,100.00
2024-04-22T01:06:39.940Z,100.00
2024-04-22T01:09:07.856Z,100.00
2024-04-22T01:11:37.723Z,100.00
2024-04-22T01:14:05.762Z,100.00
2024-04-22T01:16:35.581Z,100.00
2024-04-22T01:19:02.860Z,100.00
2024-04-22T01:21:35.224Z,100.00
2024-04-22T01:24:02.467Z,100.00
2024-04-22T01:26:32.393Z,100.00
2024-04-22T01:28:59.448Z,100.00
2024-04-22T01:31:29.388Z,100.00
2024-04-22T01:33:56.542Z,100.00
2024-04-22T01:36:26.319Z,100.00
2024-04-22T01:38:56.092Z,100.00
2024-04-22T01:41:25.981Z,100.00
2024-04-22T01:43:53.112Z,100.00
2024-04-22T01:46:22.914Z,100.00
2024-04-22T01:48:50.115Z,100.00
2024-04-22T01:51:19.946Z,100.00
2024-04-22T01:53:47.072Z,100.00
2024-04-22T01:56:19.578Z,100.00
2024-04-22T01:58:46.750Z,100.00
2024-04-22T02:01:16.670Z,100.00
2024-04-22T02:03:43.828Z,100.00
2024-04-22T02:06:13.497Z,100.00
2024-04-22T02:08:40.648Z,100.00
2024-04-22T02:11:11.969Z,100.00
2024-04-22T02:13:41.938Z,100.00
2024-04-22T02:16:11.709Z,100.00
2024-04-22T02:18:38.795Z,100.00
2024-04-22T02:21:08.640Z,100.00
2024-04-22T02:23:36.316Z,100.00
2024-04-22T02:26:06.856Z,100.00
2024-04-22T02:28:34.026Z,100.00
2024-04-22T02:31:06.758Z,100.00
2024-04-22T02:33:33.961Z,100.00
2024-04-22T02:36:03.787Z,100.00
2024-04-22T02:38:30.912Z,100.00
2024-04-22T02:41:00.655Z,100.00
2024-04-22T02:43:27.906Z,100.00
2024-04-22T02:45:57.752Z,100.00
2024-04-22T02:48:27.541Z,100.00
2024-04-22T02:50:57.390Z,100.00
2024-04-22T02:53:24.454Z,100.00
2024-04-22T02:55:54.185Z,100.00
2024-04-22T02:58:21.255Z,100.00
2024-04-22T03:00:55.438Z,100.00
2024-04-22T03:03:23.301Z,100.00
2024-04-22T03:05:55.809Z,100.00
2024-04-22T03:08:22.987Z,100.00
2024-04-22T03:10:52.679Z,100.00
2024-04-22T03:13:19.920Z,100.00
2024-04-22T03:15:49.644Z,100.00
2024-04-22T03:18:16.735Z,100.00
2024-04-22T03:20:46.544Z,100.00
2024-04-22T03:23:16.277Z,100.00
2024-04-22T03:25:46.407Z,100.00
2024-04-22T03:28:13.742Z,100.00
2024-04-22T03:30:43.513Z,100.00
2024-04-22T03:33:10.644Z,100.00
2024-04-22T03:35:40.454Z,100.00
2024-04-22T03:38:10.218Z,100.00
2024-04-22T03:40:42.542Z,100.00
2024-04-22T03:43:11.799Z,100.00
2024-04-22T03:45:41.656Z,100.00
2024-04-22T03:48:30.853Z,100.00
2024-04-22T03:51:01.361Z,100.00
2024-04-22T03:53:31.233Z,100.00
2024-04-22T03:56:03.684Z,100.00
2024-04-22T03:58:30.839Z,100.00
2024-04-22T04:01:00.706Z,100.00
2024-04-22T04:03:27.901Z,100.00
2024-04-22T04:05:57.555Z,100.00
2024-04-22T04:08:24.656Z,100.00
2024-04-22T04:10:57.285Z,100.00
2024-04-22T04:13:27.007Z,100.00
2024-04-22T04:15:56.720Z,100.00
2024-04-22T04:18:26.519Z,100.00
2024-04-22T04:20:54.435Z,100.00
2024-04-22T04:23:24.145Z,100.00
2024-04-22T04:25:51.311Z,100.00
2024-04-22T04:28:21.155Z,100.00
2024-04-22T04:30:56.880Z,100.00
2024-04-22T04:33:26.594Z,100.00
2024-04-22T04:36:00.439Z,100.00
2024-04-22T04:38:30.387Z,100.00
2024-04-22T04:40:59.167Z,100.00
2024-04-22T04:43:29.481Z,100.00
2024-04-22T04:45:59.505Z,100.00
2024-04-22T04:48:29.832Z,100.00
2024-04-22T04:50:57.112Z,100.00
2024-04-22T04:53:26.877Z,100.00
2024-04-22T04:55:54.021Z,100.00
2024-04-22T04:58:25.638Z,100.00
2024-04-22T05:00:53.219Z,100.00
2024-04-22T05:03:25.720Z,100.00
2024-04-22T05:05:59.726Z,100.00
2024-04-22T05:08:29.612Z,100.00
2024-04-22T05:10:59.144Z,100.00
2024-04-22T05:13:29.165Z,100.00
2024-04-22T05:15:56.399Z,100.00
2024-04-22T05:18:29.777Z,100.00
2024-04-22T05:20:57.002Z,100.00
2024-04-22T05:23:26.958Z,100.00
2024-04-22T05:25:54.198Z,100.00
2024-04-22T05:28:26.776Z,100.00
2024-04-22T05:30:54.059Z,100.00
2024-04-22T05:33:39.576Z,100.00
2024-04-22T05:36:16.332Z,100.00
2024-04-22T05:38:46.643Z,100.00
2024-04-22T05:41:16.488Z,100.00
2024-04-22T05:43:46.606Z,100.00
2024-04-22T05:46:16.500Z,100.00
2024-04-22T05:48:43.723Z,100.00
2024-04-22T05:51:16.306Z,100.00
2024-04-22T05:53:47.219Z,100.00
2024-04-22T05:56:14.408Z,100.00
2024-04-22T05:58:44.268Z,100.00
2024-04-22T06:01:11.584Z,100.00
2024-04-22T06:03:41.462Z,100.00
2024-04-22T06:06:08.589Z,100.00
2024-04-22T06:08:41.027Z,100.00
2024-04-22T06:11:08.939Z,100.00
2024-04-22T06:13:39.513Z,100.00
2024-04-22T06:16:07.583Z,100.00
2024-04-22T06:18:37.352Z,100.00
2024-04-22T06:21:05.144Z,100.00
2024-04-22T06:23:34.826Z,100.00
2024-04-22T06:26:05.519Z,100.00
2024-04-22T06:28:35.610Z,100.00
2024-04-22T06:31:03.313Z,100.00
2024-04-22T06:33:34.377Z,99.34
2024-04-22T06:36:01.525Z,99.54
2024-04-22T06:38:31.940Z,98.96
2024-04-22T06:40:58.898Z,97.75
2024-04-22T06:43:31.291Z,97.44
2024-04-22T06:45:58.322Z,98.92
2024-04-22T06:48:28.063Z,98.56
2024-04-22T06:50:57.327Z,97.02
2024-04-22T06:53:28.533Z,97.10
2024-04-22T06:55:55.770Z,95.06
2024-04-22T06:58:25.657Z,87.74
2024-04-22T07:00:55.448Z,86.61
2024-04-22T07:03:25.427Z,79.76
2024-04-22T07:05:52.542Z,77.71
2024-04-22T07:08:22.839Z,73.76
2024-04-22T07:10:50.004Z,69.33
2024-04-22T07:13:19.874Z,70.26
2024-04-22T07:15:46.936Z,66.49
2024-04-22T07:18:19.440Z,65.72
2024-04-22T07:20:46.900Z,63.13
2024-04-22T07:23:16.688Z,58.64
2024-04-22T07:25:43.880Z,59.42
2024-04-22T07:28:15.327Z,59.79
2024-04-22T07:30:42.933Z,57.61
2024-04-22T07:33:13.956Z,57.99
2024-04-22T07:35:49.069Z,56.23
2024-04-22T07:38:24.475Z,55.13
2024-04-22T07:40:52.245Z,52.96
2024-04-22T07:43:22.000Z,50.27
2024-04-22T07:45:49.734Z,50.88
2024-04-22T07:48:19.400Z,50.32
2024-04-22T07:50:49.162Z,51.85
2024-04-22T07:53:19.362Z,54.92
2024-04-22T07:55:47.218Z,56.59
2024-04-22T07:58:17.567Z,54.37
2024-04-22T08:00:45.802Z,53.23
2024-04-22T08:03:16.081Z,56.20
2024-04-22T08:05:43.728Z,59.84
2024-04-22T08:08:22.507Z,61.88
2024-04-22T08:10:50.511Z,60.47
2024-04-22T08:13:20.254Z,60.76
2024-04-22T08:15:50.098Z,62.23
2024-04-22T08:18:17.267Z,62.84
2024-04-22T08:20:47.144Z,61.02
2024-04-22T08:23:17.701Z,61.22
2024-04-22T08:25:48.747Z,62.95
2024-04-22T08:28:15.958Z,60.50
2024-04-22T08:30:45.701Z,60.07
2024-04-22T08:33:13.035Z,58.51
2024-04-22T08:35:48.944Z,54.87
2024-04-22T08:38:18.886Z,52.94
2024-04-22T08:40:49.389Z,51.56
2024-04-22T08:43:16.843Z,48.74
2024-04-22T08:45:48.549Z,47.30
2024-04-22T08:48:15.958Z,46.73
2024-04-22T08:50:46.273Z,46.99
2024-04-22T08:53:13.455Z,45.79
2024-04-22T08:55:46.025Z,43.94
2024-04-22T08:58:13.202Z,40.98
2024-04-22T09:00:44.221Z,41.25
2024-04-22T09:03:11.494Z,41.31
2024-04-22T09:05:42.112Z,40.83
2024-04-22T09:08:11.032Z,39.23
2024-04-22T09:11:11.765Z,38.78
2024-04-22T09:13:31.223Z,38.98
2024-04-22T09:16:03.280Z,41.81
2024-04-22T09:18:30.975Z,42.19
2024-04-22T09:21:10.385Z,39.73
2024-04-22T09:23:38.246Z,35.64
2024-04-22T09:26:08.827Z,38.24
2024-04-22T09:28:39.873Z,34.66
2024-04-22T09:31:12.824Z,34.69
2024-04-22T09:33:42.445Z,31.83
2024-04-22T09:36:14.334Z,33.36
2024-04-22T09:38:47.378Z,33.68
2024-04-22T09:41:19.908Z,34.40
2024-04-22T09:43:57.061Z,35.82
2024-04-22T09:46:30.760Z,34.71
2024-04-22T09:48:59.485Z,35.53
2024-04-22T09:51:29.916Z,36.09
2024-04-22T09:53:58.694Z,36.13
2024-04-22T09:56:32.939Z,37.53
2024-04-22T09:59:04.595Z,37.66
2024-04-22T10:01:35.115Z,36.07
2024-04-22T10:04:02.990Z,35.72
2024-04-22T10:06:34.426Z,35.78
2024-04-22T10:09:01.587Z,37.42
2024-04-22T10:11:34.559Z,37.88
2024-04-22T10:14:17.712Z,36.55
2024-04-22T10:16:57.254Z,37.00
2024-04-22T10:19:25.075Z,37.97
2024-04-22T10:21:55.020Z,38.59
2024-04-22T10:24:29.561Z,38.84
2024-04-22T10:27:05.534Z,36.04
2024-04-22T10:29:42.277Z,35.41
2024-04-22T10:32:12.203Z,35.60
2024-04-22T10:34:44.985Z,35.04
2024-04-22T10:37:15.602Z,36.50
2024-04-22T10:39:44.828Z,34.32
2024-04-22T10:42:15.963Z,34.03
2024-04-22T10:44:46.128Z,33.92
2024-04-22T10:47:16.020Z,31.08
2024-04-22T10:49:43.308Z,31.35
2024-04-22T10:52:14.415Z,33.94
2024-04-22T10:54:41.641Z,33.64
2024-04-22T10:57:11.493Z,33.01
2024-04-22T10:59:40.129Z,34.75
2024-04-22T11:02:14.887Z,35.35
2024-04-22T11:04:42.296Z,35.00
2024-04-22T11:07:12.233Z,36.19
2024-04-22T11:09:39.706Z,37.20
2024-04-22T11:12:10.853Z,35.47
2024-04-22T11:14:38.127Z,35.19
2024-04-22T11:17:08.182Z,34.72
2024-04-22T11:19:38.348Z,35.11
2024-04-22T11:22:10.262Z,32.48
2024-04-22T11:24:37.723Z,34.30
2024-04-22T11:27:08.839Z,35.41
2024-04-22T11:29:57.678Z,32.63
2024-04-22T11:32:28.432Z,31.10
2024-04-22T11:34:58.491Z,31.55
2024-04-22T11:37:30.211Z,32.38
2024-04-22T11:39:59.613Z,31.53
2024-04-22T11:42:29.560Z,28.81
2024-04-22T11:44:56.968Z,30.02
2024-04-22T11:47:28.418Z,31.43
2024-04-22T11:49:58.377Z,34.12
2024-04-22T11:52:28.297Z,33.77
2024-04-22T11:54:55.400Z,36.01
2024-04-22T11:57:25.057Z,35.86
2024-04-22T11:59:52.150Z,40.66
2024-04-22T12:02:22.000Z,42.75
2024-04-22T12:04:49.186Z,45.09
2024-04-22T12:07:21.684Z,46.48
2024-04-22T12:09:48.790Z,48.60
2024-04-22T12:12:18.721Z,52.36
2024-04-22T12:14:45.731Z,50.11
2024-04-22T12:17:15.843Z,52.05
2024-04-22T12:19:42.971Z,51.46
2024-04-22T12:22:12.647Z,43.40
2024-04-22T12:24:42.341Z,42.17
2024-04-22T12:27:13.469Z,40.33
2024-04-22T12:29:43.783Z,43.54
2024-04-22T12:32:10.892Z,42.72
2024-04-22T12:34:40.692Z,42.92
2024-04-22T12:37:07.802Z,43.42
2024-04-22T12:39:37.481Z,41.74
2024-04-22T12:42:07.301Z,42.67
2024-04-22T12:44:36.987Z,44.60
2024-04-22T12:47:23.254Z,44.77
2024-04-22T12:50:09.011Z,47.69
2024-04-22T12:52:38.681Z,47.12
2024-04-22T12:55:09.192Z,48.26
2024-04-22T12:57:42.112Z,49.45
2024-04-22T13:00:14.489Z,47.93
2024-04-22T13:02:45.384Z,49.73
2024-04-22T13:05:15.195Z,56.18
2024-04-22T13:07:45.083Z,61.19
2024-04-22T13:10:15.005Z,72.12
2024-04-22T13:12:47.599Z,83.14
2024-04-22T13:15:17.584Z,88.56
2024-04-22T13:17:47.492Z,91.92
2024-04-22T13:20:17.671Z,96.80
2024-04-22T13:22:44.891Z,98.23
2024-04-22T13:25:14.886Z,97.50
2024-04-22T13:27:45.245Z,97.23
2024-04-22T13:30:16.844Z,98.47
2024-04-22T13:32:44.902Z,93.47
2024-04-22T13:35:14.933Z,95.57
2024-04-22T13:37:42.028Z,96.06
2024-04-22T13:40:12.369Z,96.14
2024-04-22T13:42:44.207Z,93.90
2024-04-22T13:45:18.662Z,93.64
2024-04-22T13:47:45.908Z,93.22
2024-04-22T13:50:15.773Z,93.52
2024-04-22T13:52:44.500Z,92.83
2024-04-22T13:55:14.940Z,94.17
2024-04-22T13:57:42.090Z,94.66
2024-04-22T14:00:14.725Z,93.15
2024-04-22T14:02:45.087Z,92.70
2024-04-22T14:05:14.884Z,90.75
2024-04-22T14:07:42.219Z,84.31
2024-04-22T14:10:11.982Z,79.94
2024-04-22T14:12:39.260Z,80.66
2024-04-22T14:15:11.163Z,75.73
2024-04-22T14:17:40.652Z,78.14
2024-04-22T14:20:14.293Z,70.54
2024-04-22T14:22:41.418Z,68.90
2024-04-22T14:25:11.339Z,72.54
2024-04-22T14:27:38.565Z,67.03
2024-04-22T14:30:10.442Z,70.24
2024-04-22T14:32:37.638Z,67.84
2024-04-22T14:35:08.233Z,68.98
2024-04-22T14:37:38.025Z,69.33
2024-04-22T14:40:08.622Z,68.97
2024-04-22T14:42:35.709Z,68.52
2024-04-22T14:45:05.626Z,71.24
2024-04-22T14:47:32.682Z,69.52
2024-04-22T14:50:02.507Z,69.68
2024-04-22T14:52:29.633Z,69.17
2024-04-22T14:55:02.040Z,61.46
2024-04-22T14:57:29.043Z,63.25
2024-04-22T14:59:58.788Z,65.62
2024-04-22T15:02:26.169Z,56.05
2024-04-22T15:04:55.880Z,54.24
2024-04-22T15:07:23.110Z,51.00
2024-04-22T15:09:52.769Z,53.97
2024-04-22T15:12:22.471Z,56.20
2024-04-22T15:14:52.165Z,59.38
2024-04-22T15:17:19.392Z,58.17
2024-04-22T15:19:49.156Z,59.11
2024-04-22T15:22:16.317Z,58.56
2024-04-22T15:24:46.238Z,57.87
2024-04-22T15:27:13.449Z,63.17
2024-04-22T15:29:45.817Z,68.34
2024-04-22T15:32:13.002Z,69.61
2024-04-22T15:34:43.936Z,68.73
2024-04-22T15:37:11.225Z,70.00
2024-04-22T15:39:43.218Z,68.67
2024-04-22T15:42:10.328Z,68.43
2024-04-22T15:44:40.178Z,67.82
2024-04-22T15:47:09.887Z,69.17
2024-04-22T15:49:39.945Z,64.91
2024-04-22T15:52:07.163Z,64.74
2024-04-22T15:54:36.865Z,61.96
2024-04-22T15:57:05.644Z,60.75
2024-04-22T15:59:35.426Z,61.10
2024-04-22T16:02:02.650Z,62.41
2024-04-22T16:04:35.023Z,60.05
2024-04-22T16:07:02.110Z,57.65
2024-04-22T16:09:31.896Z,58.18
2024-04-22T16:12:01.569Z,58.31
2024-04-22T16:14:31.305Z,59.39
2024-04-22T16:16:58.445Z,59.32
2024-04-22T16:19:28.205Z,60.51
2024-04-22T16:21:57.877Z,59.65
2024-04-22T16:24:27.623Z,58.66
2024-04-22T16:26:55.193Z,57.49
2024-04-22T16:29:25.160Z,59.17
2024-04-22T16:31:52.400Z,56.72
2024-04-22T16:34:22.355Z,57.75
2024-04-22T16:36:49.439Z,53.85
2024-04-22T16:39:21.862Z,55.00
2024-04-22T16:41:48.911Z,55.61
2024-04-22T16:44:21.734Z,59.68
2024-04-22T16:46:48.882Z,59.08
2024-04-22T16:49:18.667Z,57.35
2024-04-22T16:51:45.716Z,56.48
2024-04-22T16:54:16.279Z,53.86
2024-04-22T16:56:45.969Z,56.30
2024-04-22T16:59:18.805Z,54.87
2024-04-22T17:01:45.935Z,52.61
2024-04-22T17:04:15.778Z,54.31
2024-04-22T17:06:42.953Z,54.22
2024-04-22T17:09:12.571Z,53.34
2024-04-22T17:11:39.679Z,55.55
2024-04-22T17:14:12.094Z,51.50
2024-04-22T17:16:39.234Z,53.98
2024-04-22T17:19:08.920Z,54.36
2024-04-22T17:21:36.178Z,54.58
2024-04-22T17:24:06.090Z,55.79
2024-04-22T17:26:33.188Z,56.24
2024-04-22T17:29:02.910Z,58.89
2024-04-22T17:31:32.812Z,57.94
2024-04-22T17:34:04.646Z,58.80
2024-04-22T17:36:31.667Z,59.76
2024-04-22T17:39:02.878Z,59.27
2024-04-22T17:41:30.057Z,60.31
2024-04-22T17:44:00.189Z,60.23
2024-04-22T17:46:27.391Z,61.09
2024-04-22T17:48:59.674Z,64.56
2024-04-22T17:51:27.614Z,67.91
2024-04-22T17:53:57.270Z,73.60
2024-04-22T17:56:24.519Z,74.47
2024-04-22T17:58:54.330Z,75.59
2024-04-22T18:01:21.441Z,76.28
2024-04-22T18:03:51.326Z,76.79
2024-04-22T18:06:21.076Z,78.20
2024-04-22T18:08:51.108Z,77.24
2024-04-22T18:11:18.240Z,78.30
2024-04-22T18:13:47.970Z,78.59
2024-04-22T18:16:15.185Z,78.00
2024-04-22T18:18:45.278Z,81.52
2024-04-22T18:21:12.282Z,81.26
2024-04-22T18:23:44.562Z,82.62
2024-04-22T18:26:14.663Z,83.69
2024-04-22T18:28:46.256Z,83.81
2024-04-22T18:31:13.347Z,84.68
2024-04-22T18:33:44.462Z,84.83
2024-04-22T18:36:11.520Z,86.50
2024-04-22T18:38:44.104Z,86.50
2024-04-22T18:41:11.415Z,87.39
2024-04-22T18:43:41.636Z,88.75
2024-04-22T18:46:08.946Z,88.66
2024-04-22T18:48:38.742Z,89.47
2024-04-22T18:51:06.106Z,90.59
2024-04-22T18:53:35.789Z,90.69
2024-04-22T18:56:06.094Z,91.07
2024-04-22T18:58:35.911Z,92.64
2024-04-22T19:01:03.020Z,92.86
2024-04-22T19:03:32.885Z,93.56
2024-04-22T19:05:59.957Z,93.64
2024-04-22T19:08:29.791Z,93.94
2024-04-22T19:10:57.429Z,93.98
2024-04-22T19:13:29.871Z,94.05
2024-04-22T19:15:56.909Z,94.46
2024-04-22T19:18:27.124Z,94.93
2024-04-22T19:20:54.231Z,94.81
2024-04-22T19:23:23.908Z,94.36
2024-04-22T19:25:51.041Z,95.51
2024-04-22T19:28:21.155Z,93.04
2024-04-22T19:30:53.897Z,92.74
2024-04-22T19:33:23.615Z,90.66
2024-04-22T19:35:50.901Z,89.56
2024-04-22T19:38:20.689Z,89.88
2024-04-22T19:40:47.871Z,89.14
2024-04-22T19:43:17.849Z,88.33
2024-04-22T19:45:44.990Z,87.27
2024-04-22T19:48:17.517Z,86.12
2024-04-22T19:50:45.920Z,85.85
2024-04-22T19:53:16.514Z,86.33
2024-04-22T19:55:44.324Z,85.43
2024-04-22T19:58:14.130Z,85.89
2024-04-22T20:00:41.250Z,85.59
2024-04-22T20:03:11.087Z,85.81
2024-04-22T20:05:40.884Z,85.05
2024-04-22T20:08:11.678Z,85.28
2024-04-22T20:10:42.210Z,85.49
2024-04-22T20:13:13.302Z,86.16
2024-04-22T20:15:51.368Z,86.07
2024-04-22T20:18:41.383Z,87.89
2024-04-22T20:21:11.423Z,86.72
2024-04-22T20:23:41.179Z,87.10
2024-04-22T20:26:08.259Z,87.23
2024-04-22T20:28:38.049Z,86.40
2024-04-22T20:31:05.429Z,87.66
2024-04-22T20:33:35.379Z,87.88
2024-04-22T20:36:02.637Z,86.87
2024-04-22T20:38:36.327Z,87.37
2024-04-22T20:41:04.289Z,87.46
2024-04-22T20:43:35.834Z,87.68
2024-04-22T20:46:04.826Z,88.04
2024-04-22T20:48:35.773Z,88.19
2024-04-22T20:51:04.655Z,88.43
2024-04-22T20:53:37.817Z,89.03
2024-04-22T20:56:06.055Z,88.87
2024-04-22T20:58:36.718Z,89.02
2024-04-22T21:01:05.118Z,88.94
2024-04-22T21:03:35.809Z,89.30
2024-04-22T21:06:04.636Z,91.17
2024-04-22T21:08:37.332Z,91.03
2024-04-22T21:11:05.086Z,90.46
2024-04-22T21:13:46.795Z,90.37
2024-04-22T21:16:14.095Z,90.25
2024-04-22T21:18:44.579Z,91.28
2024-04-22T21:21:11.885Z,90.98
2024-04-22T21:23:44.802Z,91.48
2024-04-22T21:26:12.341Z,91.44
2024-04-22T21:28:42.521Z,91.35
2024-04-22T21:31:09.689Z,92.36
2024-04-22T21:33:56.079Z,93.15
2024-04-22T21:36:26.940Z,92.74
2024-04-22T21:38:59.283Z,92.92
2024-04-22T21:41:26.459Z,93.25
2024-04-22T21:43:56.153Z,92.58
2024-04-22T21:46:23.390Z,92.88
2024-04-22T21:48:53.113Z,94.21
2024-04-22T21:51:23.262Z,94.19
2024-04-22T21:53:53.121Z,95.65
2024-04-22T21:56:20.465Z,97.40
2024-04-22T21:59:27.675Z,98.07
2024-04-22T22:02:32.130Z,99.57
2024-04-22T22:05:38.984Z,99.58
2024-04-22T22:08:07.718Z,99.82
2024-04-22T22:10:40.750Z,100.00
2024-04-22T22:13:08.059Z,100.00
2024-04-22T22:15:37.827Z,100.00
2024-04-22T22:18:05.758Z,100.00
2024-04-22T22:20:35.661Z,100.00
2024-04-22T22:23:02.829Z,100.00
2024-04-22T22:25:32.706Z,100.00
2024-04-22T22:28:02.641Z,100.00
2024-04-22T22:30:32.298Z,100.00
2024-04-22T22:32:59.417Z,100.00
2024-04-22T22:35:29.221Z,100.00
2024-04-22T22:37:56.300Z,100.00
2024-04-22T22:40:26.219Z,100.00
2024-04-22T22:42:53.299Z,100.00
2024-04-22T22:45:25.741Z,100.00
2024-04-22T22:47:52.985Z,100.00
2024-04-22T22:50:22.917Z,100.00
2024-04-22T22:52:50.044Z,100.00
2024-04-22T22:55:19.817Z,100.00
2024-04-22T22:57:46.935Z,100.00
2024-04-22T23:00:17.268Z,100.00
2024-04-22T23:02:47.831Z,100.00
2024-04-22T23:05:17.543Z,100.00
2024-04-22T23:07:44.698Z,100.00
2024-04-22T23:10:14.511Z,100.00
2024-04-22T23:12:41.557Z,100.00
2024-04-22T23:15:11.373Z,100.00
2024-04-22T23:17:38.459Z,100.00
2024-04-22T23:20:11.390Z,100.00
2024-04-22T23:22:38.460Z,100.00
2024-04-22T23:25:08.881Z,100.00
2024-04-22T23:27:35.996Z,100.00
2024-04-22T23:30:05.868Z,100.00
2024-04-22T23:32:33.363Z,100.00
2024-04-22T23:35:03.154Z,100.00
2024-04-22T23:37:33.014Z,100.00
2024-04-22T23:40:02.739Z,100.00
2024-04-22T23:42:29.948Z,100.00
2024-04-22T23:44:59.602Z,100.00
2024-04-22T23:47:26.804Z,100.00
2024-04-22T23:49:56.674Z,100.00
2024-04-22T23:52:23.863Z,100.00
2024-04-22T23:54:56.254Z,100.00
2024-04-22T23:57:23.369Z,100.00
2024-04-22T23:59:53.157Z,100.00
